createdAt,value
2023-03-20T00:00:00.233Z,1087.1340
2023-03-20T00:00:11.311Z,1090.6860
2023-03-20T00:00:22.384Z,1081.8480
2023-03-20T00:00:33.420Z,1086.2490
2023-03-20T00:00:44.483Z,1074.8790
2023-03-20T00:00:55.558Z,1078.3521
2023-03-20T00:01:06.622Z,1083.6040
2023-03-20T00:01:17.687Z,1084.4840
2023-03-20T00:01:28.734Z,1080.9720
2023-03-20T00:01:39.799Z,1079.2240
2023-03-20T00:01:50.870Z,1077.4821
2023-03-20T00:02:01.936Z,1083.6040
2023-03-20T00:02:13.001Z,1083.6040
2023-03-20T00:02:24.063Z,1076.6130
2023-03-20T00:02:35.126Z,1078.3521
2023-03-20T00:02:46.171Z,1089.7960
2023-03-20T00:02:57.236Z,1081.8480
2023-03-20T00:03:08.284Z,1093.3660
2023-03-20T00:03:19.367Z,1082.7250
2023-03-20T00:03:30.463Z,1088.0200
2023-03-20T00:03:41.569Z,1081.8480
2023-03-20T00:03:52.717Z,1087.1340
2023-03-20T00:04:03.786Z,1076.6130
2023-03-20T00:04:15.037Z,1087.1340
2023-03-20T00:04:26.424Z,1076.6130
2023-03-20T00:04:37.520Z,1082.7250
2023-03-20T00:04:48.661Z,1083.6040
2023-03-20T00:04:59.885Z,1083.6040
2023-03-20T00:05:10.941Z,1080.9720
2023-03-20T00:05:22.043Z,1082.7250
2023-03-20T00:05:33.117Z,1080.9720
2023-03-20T00:05:44.189Z,1085.3660
2023-03-20T00:05:55.268Z,1081.8480
2023-03-20T00:06:06.304Z,1083.6040
2023-03-20T00:06:17.389Z,1080.9720
2023-03-20T00:06:28.460Z,1082.7250
2023-03-20T00:06:39.544Z,1078.3521
2023-03-20T00:06:50.629Z,1080.9720
2023-03-20T00:07:01.777Z,1078.3521
2023-03-20T00:07:12.825Z,1076.6130
2023-03-20T00:07:23.876Z,1072.2889
2023-03-20T00:07:34.954Z,1078.3521
2023-03-20T00:07:46.028Z,1078.3521
2023-03-20T00:07:57.095Z,1082.7250
2023-03-20T00:08:08.142Z,1075.7450
2023-03-20T00:08:19.164Z,1083.6040
2023-03-20T00:08:30.211Z,1089.7960
2023-03-20T00:08:41.245Z,1082.7250
2023-03-20T00:08:53.288Z,1076.6130
2023-03-20T00:09:07.552Z,1078.3521
2023-03-20T00:09:18.850Z,1078.3521
2023-03-20T00:09:29.915Z,1076.6130
2023-03-20T00:09:40.990Z,1076.6130
2023-03-20T00:09:52.050Z,1076.6130
2023-03-20T00:10:03.134Z,1080.0970
2023-03-20T00:10:14.166Z,1079.2240
2023-03-20T00:10:25.223Z,1083.6040
2023-03-20T00:10:36.268Z,1075.7450
2023-03-20T00:10:47.331Z,1074.8790
2023-03-20T00:10:58.348Z,1074.0140
2023-03-20T00:11:09.417Z,1075.7450
2023-03-20T00:11:20.474Z,1076.6130
2023-03-20T00:11:31.534Z,1073.1510
2023-03-20T00:11:42.613Z,1071.4290
2023-03-20T00:11:53.645Z,1071.4290
2023-03-20T00:12:04.723Z,1081.8480
2023-03-20T00:12:15.770Z,1074.8790
2023-03-20T00:12:26.832Z,1067.1460
2023-03-20T00:12:37.897Z,1081.8480
2023-03-20T00:12:48.929Z,1076.6130
2023-03-20T00:13:00.007Z,1081.8480
2023-03-20T00:13:11.078Z,1080.0970
2023-03-20T00:13:22.138Z,1073.1510
2023-03-20T00:13:33.232Z,1074.0140
2023-03-20T00:13:44.282Z,1074.8790
2023-03-20T00:13:55.378Z,1075.7450
2023-03-20T00:14:06.448Z,1075.7450
2023-03-20T00:14:17.496Z,1077.4821
2023-03-20T00:14:28.574Z,1078.3521
2023-03-20T00:14:39.628Z,1075.7450
2023-03-20T00:14:50.682Z,1076.6130
2023-03-20T00:15:01.741Z,1077.4821
2023-03-20T00:15:12.775Z,1073.1510
2023-03-20T00:15:23.828Z,1077.4821
2023-03-20T00:15:35.145Z,1073.1510
2023-03-20T00:15:46.410Z,1074.0140
2023-03-20T00:15:57.500Z,1078.3521
2023-03-20T00:16:08.552Z,1068.0000
2023-03-20T00:16:19.687Z,1074.8790
2023-03-20T00:16:30.788Z,1077.4821
2023-03-20T00:16:41.862Z,1073.1510
2023-03-20T00:16:52.970Z,1078.3521
2023-03-20T00:17:03.997Z,1073.1510
2023-03-20T00:17:15.047Z,1073.1510
2023-03-20T00:17:26.115Z,1071.4290
2023-03-20T00:17:37.178Z,1076.6130
2023-03-20T00:17:48.254Z,1072.2889
2023-03-20T00:17:59.369Z,1082.7250
2023-03-20T00:18:10.431Z,1076.6130
2023-03-20T00:18:21.543Z,1075.7450
2023-03-20T00:18:32.603Z,1072.2889
2023-03-20T00:18:43.662Z,1077.4821
2023-03-20T00:18:54.732Z,1065.4430
2023-03-20T00:19:05.803Z,1078.3521
2023-03-20T00:19:16.863Z,1087.1340
2023-03-20T00:19:27.942Z,1075.7450
2023-03-20T00:19:38.991Z,1073.1510
2023-03-20T00:19:50.050Z,1080.9720
2023-03-20T00:20:01.099Z,1076.6130
2023-03-20T00:20:12.145Z,1072.2889
2023-03-20T00:20:23.197Z,1071.4290
2023-03-20T00:20:34.556Z,1084.4840
2023-03-20T00:20:45.878Z,1068.0000
2023-03-20T00:20:56.932Z,1073.1510
2023-03-20T00:21:08.022Z,1071.4290
2023-03-20T00:21:19.070Z,1072.2889
2023-03-20T00:21:30.132Z,1080.9720
2023-03-20T00:21:41.217Z,1078.3521
2023-03-20T00:21:52.267Z,1070.5690
2023-03-20T00:22:03.319Z,1073.1510
2023-03-20T00:22:14.386Z,1071.4290
2023-03-20T00:22:25.446Z,1071.4290
2023-03-20T00:22:36.504Z,1075.7450
2023-03-20T00:22:47.583Z,1069.7120
2023-03-20T00:22:58.678Z,1075.7450
2023-03-20T00:23:09.734Z,1073.1510
2023-03-20T00:23:20.810Z,1073.1510
2023-03-20T00:23:31.848Z,1073.1510
2023-03-20T00:23:42.911Z,1069.7120
2023-03-20T00:23:53.969Z,1070.5690
2023-03-20T00:24:05.049Z,1068.0000
2023-03-20T00:24:16.133Z,1077.4821
2023-03-20T00:24:27.166Z,1076.6130
2023-03-20T00:24:38.244Z,1073.1510
2023-03-20T00:24:49.311Z,1074.0140
2023-03-20T00:25:00.358Z,1073.1510
2023-03-20T00:25:11.430Z,1072.2889
2023-03-20T00:25:22.508Z,1069.7120
2023-03-20T00:25:33.977Z,1071.4290
2023-03-20T00:25:45.400Z,1068.8550
2023-03-20T00:25:56.485Z,1069.7120
2023-03-20T00:26:07.524Z,1071.4290
2023-03-20T00:26:18.593Z,1068.0000
2023-03-20T00:26:29.652Z,1068.0000
2023-03-20T00:26:40.695Z,1065.4430
2023-03-20T00:26:51.801Z,1080.0970
2023-03-20T00:27:02.872Z,1073.1510
2023-03-20T00:27:13.917Z,1072.2889
2023-03-20T00:27:24.990Z,1071.4290
2023-03-20T00:27:36.046Z,1062.8979
2023-03-20T00:27:47.120Z,1068.8550
2023-03-20T00:27:58.194Z,1070.5690
2023-03-20T00:28:09.232Z,1059.5240
2023-03-20T00:28:20.302Z,1066.2939
2023-03-20T00:28:31.337Z,1071.4290
2023-03-20T00:28:42.395Z,1071.4290
2023-03-20T00:28:53.532Z,1064.5930
2023-03-20T00:29:04.590Z,1066.2939
2023-03-20T00:29:15.632Z,1070.5690
2023-03-20T00:29:26.771Z,1071.4290
2023-03-20T00:29:37.800Z,1070.5690
2023-03-20T00:29:48.886Z,1068.8550
2023-03-20T00:29:59.927Z,1066.2939
2023-03-20T00:30:10.996Z,1073.1510
2023-03-20T00:30:22.056Z,1068.0000
2023-03-20T00:30:33.134Z,1065.4430
2023-03-20T00:30:44.170Z,1068.0000
2023-03-20T00:30:55.212Z,1069.7120
2023-03-20T00:31:06.374Z,1066.2939
2023-03-20T00:31:17.434Z,1074.0140
2023-03-20T00:31:28.511Z,1068.0000
2023-03-20T00:31:39.702Z,1063.7450
2023-03-20T00:31:50.879Z,1063.7450
2023-03-20T00:32:01.925Z,1069.7120
2023-03-20T00:32:13.025Z,1064.5930
2023-03-20T00:32:24.091Z,1061.2080
2023-03-20T00:32:35.228Z,1068.8550
2023-03-20T00:32:46.330Z,1063.7450
2023-03-20T00:32:57.437Z,1068.0000
2023-03-20T00:33:08.527Z,1064.5930
2023-03-20T00:33:19.572Z,1066.2939
2023-03-20T00:33:30.653Z,1069.7120
2023-03-20T00:33:41.724Z,1068.0000
2023-03-20T00:33:52.792Z,1075.7450
2023-03-20T00:34:03.855Z,1069.7120
2023-03-20T00:34:14.881Z,1064.5930
2023-03-20T00:34:26.009Z,1063.7450
2023-03-20T00:34:37.081Z,1055.3361
2023-03-20T00:34:48.151Z,1064.5930
2023-03-20T00:34:59.194Z,1063.7450
2023-03-20T00:35:10.272Z,1062.8979
2023-03-20T00:35:21.343Z,1073.1510
2023-03-20T00:35:32.444Z,1063.7450
2023-03-20T00:35:43.513Z,1077.4821
2023-03-20T00:35:54.617Z,1062.8979
2023-03-20T00:36:05.740Z,1068.0000
2023-03-20T00:36:16.821Z,1069.7120
2023-03-20T00:36:27.886Z,1062.0530
2023-03-20T00:36:38.932Z,1062.0530
2023-03-20T00:36:49.980Z,1066.2939
2023-03-20T00:37:01.049Z,1066.2939
2023-03-20T00:37:12.137Z,1059.5240
2023-03-20T00:37:23.175Z,1059.5240
2023-03-20T00:37:34.230Z,1057.8450
2023-03-20T00:37:45.309Z,1064.5930
2023-03-20T00:37:56.372Z,1068.8550
2023-03-20T00:38:07.477Z,1062.8979
2023-03-20T00:38:19.000Z,1061.2080
2023-03-20T00:38:30.067Z,1064.5930
2023-03-20T00:38:41.152Z,1060.3650
2023-03-20T00:38:52.208Z,1060.3650
2023-03-20T00:39:03.254Z,1060.3650
2023-03-20T00:39:14.348Z,1061.2080
2023-03-20T00:39:25.431Z,1057.8450
2023-03-20T00:39:36.460Z,1057.8450
2023-03-20T00:39:47.572Z,1059.5240
2023-03-20T00:39:58.605Z,1060.3650
2023-03-20T00:40:09.691Z,1058.6840
2023-03-20T00:40:20.724Z,1061.2080
2023-03-20T00:40:31.789Z,1058.6840
2023-03-20T00:40:42.860Z,1057.0070
2023-03-20T00:40:53.961Z,1062.8979
2023-03-20T00:41:05.019Z,1056.1710
2023-03-20T00:41:16.094Z,1054.5020
2023-03-20T00:41:27.133Z,1053.6700
2023-03-20T00:41:38.197Z,1054.5020
2023-03-20T00:41:49.230Z,1056.1710
2023-03-20T00:42:00.292Z,1053.6700
2023-03-20T00:42:11.370Z,1052.8390
2023-03-20T00:42:22.502Z,1059.5240
2023-03-20T00:42:33.528Z,1057.8450
2023-03-20T00:42:44.580Z,1056.1710
2023-03-20T00:42:55.637Z,1054.5020
2023-03-20T00:43:06.702Z,1057.8450
2023-03-20T00:43:17.764Z,1057.8450
2023-03-20T00:43:28.824Z,1056.1710
2023-03-20T00:43:39.897Z,1056.1710
2023-03-20T00:43:50.956Z,1056.1710
2023-03-20T00:44:02.013Z,1054.5020
2023-03-20T00:44:13.080Z,1052.0090
2023-03-20T00:44:24.126Z,1058.6840
2023-03-20T00:44:35.208Z,1050.3540
2023-03-20T00:44:46.276Z,1062.8979
2023-03-20T00:44:57.381Z,1051.1810
2023-03-20T00:45:08.408Z,1056.1710
2023-03-20T00:45:19.504Z,1054.5020
2023-03-20T00:45:30.558Z,1059.5240
2023-03-20T00:45:41.604Z,1052.8390
2023-03-20T00:45:52.709Z,1054.5020
2023-03-20T00:46:03.799Z,1049.5280
2023-03-20T00:46:14.874Z,1057.0070
2023-03-20T00:46:25.988Z,1055.3361
2023-03-20T00:46:37.066Z,1052.0090
2023-03-20T00:46:48.234Z,1056.1710
2023-03-20T00:46:59.415Z,1053.6700
2023-03-20T00:47:10.494Z,1057.8450
2023-03-20T00:47:21.566Z,1052.8390
2023-03-20T00:47:32.606Z,1050.3540
2023-03-20T00:47:43.682Z,1047.8810
2023-03-20T00:47:54.764Z,1056.1710
2023-03-20T00:48:05.807Z,1049.5280
2023-03-20T00:48:16.877Z,1050.3540
2023-03-20T00:48:27.946Z,1051.1810
2023-03-20T00:48:39.014Z,1060.3650
2023-03-20T00:48:50.075Z,1051.1810
2023-03-20T00:49:01.125Z,1051.1810
2023-03-20T00:49:12.222Z,1051.1810
2023-03-20T00:49:23.262Z,1047.0590
2023-03-20T00:49:34.299Z,1052.8390
2023-03-20T00:49:45.352Z,1052.8390
2023-03-20T00:49:56.413Z,1045.4189
2023-03-20T00:50:07.488Z,1054.5020
2023-03-20T00:50:18.552Z,1047.0590
2023-03-20T00:50:29.602Z,1058.6840
2023-03-20T00:50:40.671Z,1049.5280
2023-03-20T00:50:51.737Z,1042.9690
2023-03-20T00:51:02.829Z,1050.3540
2023-03-20T00:51:13.887Z,1044.6010
2023-03-20T00:51:24.929Z,1047.0590
2023-03-20T00:51:35.991Z,1052.8390
2023-03-20T00:51:47.049Z,1050.3540
2023-03-20T00:51:58.369Z,1052.8390
2023-03-20T00:52:09.732Z,1045.4189
2023-03-20T00:52:20.787Z,1055.3361
2023-03-20T00:52:31.872Z,1042.9690
2023-03-20T00:52:42.912Z,1047.8810
2023-03-20T00:52:53.968Z,1048.7040
2023-03-20T00:53:05.040Z,1046.2380
2023-03-20T00:53:16.087Z,1043.7841
2023-03-20T00:53:27.144Z,1046.2380
2023-03-20T00:53:38.202Z,1043.7841
2023-03-20T00:53:49.244Z,1050.3540
2023-03-20T00:54:00.329Z,1047.0590
2023-03-20T00:54:11.401Z,1042.9690
2023-03-20T00:54:22.467Z,1041.3420
2023-03-20T00:54:33.563Z,1044.6010
2023-03-20T00:54:44.639Z,1046.2380
2023-03-20T00:54:55.657Z,1046.2380
2023-03-20T00:55:06.741Z,1041.3420
2023-03-20T00:55:17.815Z,1042.1550
2023-03-20T00:55:28.943Z,1046.2380
2023-03-20T00:55:40.031Z,1047.8810
2023-03-20T00:55:51.117Z,1038.9110
2023-03-20T00:56:02.172Z,1046.2380
2023-03-20T00:56:13.252Z,1041.3420
2023-03-20T00:56:24.319Z,1041.3420
2023-03-20T00:56:35.392Z,1044.6010
2023-03-20T00:56:46.448Z,1036.4910
2023-03-20T00:56:57.491Z,1044.6010
2023-03-20T00:57:08.556Z,1046.2380
2023-03-20T00:57:19.617Z,1042.9690
2023-03-20T00:57:30.639Z,1045.4189
2023-03-20T00:57:41.702Z,1052.8390
2023-03-20T00:57:52.743Z,1047.8810
2023-03-20T00:58:03.850Z,1042.9690
2023-03-20T00:58:14.898Z,1040.5300
2023-03-20T00:58:25.993Z,1046.2380
2023-03-20T00:58:37.044Z,1038.1030
2023-03-20T00:58:48.112Z,1038.1030
2023-03-20T00:58:59.167Z,1038.9110
2023-03-20T00:59:10.210Z,1034.8840
2023-03-20T00:59:21.274Z,1045.4189
2023-03-20T00:59:32.315Z,1041.3420
2023-03-20T00:59:43.392Z,1040.5300
2023-03-20T00:59:54.456Z,1048.7040
2023-03-20T01:00:05.530Z,1038.1030
2023-03-20T01:00:16.590Z,1041.3420
2023-03-20T01:00:27.814Z,1041.3420
2023-03-20T01:00:38.911Z,1034.0820
2023-03-20T01:00:50.017Z,1033.2820
2023-03-20T01:01:01.119Z,1038.9110
2023-03-20T01:01:12.252Z,1041.3420
2023-03-20T01:01:23.330Z,1039.7200
2023-03-20T01:01:34.374Z,1034.8840
2023-03-20T01:01:45.431Z,1036.4910
2023-03-20T01:01:56.604Z,1038.1030
2023-03-20T01:02:07.721Z,1036.4910
2023-03-20T01:02:18.827Z,1044.6010
2023-03-20T01:02:30.100Z,1044.6010
2023-03-20T01:02:41.401Z,1034.8840
2023-03-20T01:02:52.407Z,1036.4910
2023-03-20T01:03:03.472Z,1034.0820
2023-03-20T01:03:14.531Z,1038.9110
2023-03-20T01:03:25.600Z,1034.8840
2023-03-20T01:03:38.563Z,1034.8840
2023-03-20T01:03:51.482Z,1033.2820
2023-03-20T01:04:02.533Z,1032.4830
2023-03-20T01:04:13.590Z,1033.2820
2023-03-20T01:04:24.642Z,1034.8840
2023-03-20T01:04:35.705Z,1030.0930
2023-03-20T01:04:46.736Z,1028.5050
2023-03-20T01:04:57.783Z,1030.8879
2023-03-20T01:05:08.858Z,1038.1030
2023-03-20T01:05:19.926Z,1033.2820
2023-03-20T01:05:31.038Z,1036.4910
2023-03-20T01:05:42.083Z,1030.8879
2023-03-20T01:05:53.161Z,1031.6851
2023-03-20T01:06:04.192Z,1038.1030
2023-03-20T01:06:15.257Z,1034.8840
2023-03-20T01:06:26.337Z,1028.5050
2023-03-20T01:06:37.402Z,1025.3459
2023-03-20T01:06:48.449Z,1031.6851
2023-03-20T01:06:59.530Z,1033.2820
2023-03-20T01:07:10.567Z,1032.4830
2023-03-20T01:07:21.646Z,1028.5050
2023-03-20T01:07:32.712Z,1027.7140
2023-03-20T01:07:43.792Z,1031.6851
2023-03-20T01:07:54.848Z,1031.6851
2023-03-20T01:08:05.890Z,1036.4910
2023-03-20T01:08:16.971Z,1030.0930
2023-03-20T01:08:28.005Z,1037.2960
2023-03-20T01:08:39.085Z,1022.2050
2023-03-20T01:08:50.157Z,1030.8879
2023-03-20T01:09:01.208Z,1030.0930
2023-03-20T01:09:12.270Z,1030.0930
2023-03-20T01:09:23.344Z,1034.8840
2023-03-20T01:09:34.399Z,1028.5050
2023-03-20T01:09:45.472Z,1026.9230
2023-03-20T01:09:56.553Z,1029.2980
2023-03-20T01:10:07.634Z,1024.5590
2023-03-20T01:10:18.687Z,1028.5050
2023-03-20T01:10:29.756Z,1033.2820
2023-03-20T01:10:40.848Z,1032.4830
2023-03-20T01:10:51.937Z,1028.5050
2023-03-20T01:11:03.004Z,1026.9230
2023-03-20T01:11:14.051Z,1026.1340
2023-03-20T01:11:25.121Z,1033.2820
2023-03-20T01:11:36.189Z,1026.9230
2023-03-20T01:11:47.247Z,1032.4830
2023-03-20T01:11:58.293Z,1021.4230
2023-03-20T01:12:09.373Z,1025.3459
2023-03-20T01:12:20.438Z,1025.3459
2023-03-20T01:12:31.509Z,1029.2980
2023-03-20T01:12:42.570Z,1030.8879
2023-03-20T01:12:53.647Z,1022.2050
2023-03-20T01:13:04.695Z,1029.2980
2023-03-20T01:13:15.756Z,1022.2050
2023-03-20T01:13:26.813Z,1025.3459
2023-03-20T01:13:37.879Z,1026.9230
2023-03-20T01:13:48.930Z,1019.8620
2023-03-20T01:14:00.004Z,1028.5050
2023-03-20T01:14:11.070Z,1024.5590
2023-03-20T01:14:22.134Z,1024.5590
2023-03-20T01:14:33.227Z,1022.2050
2023-03-20T01:14:44.283Z,1020.6420
2023-03-20T01:14:55.358Z,1020.6420
2023-03-20T01:15:06.421Z,1022.9890
2023-03-20T01:15:17.462Z,1030.0930
2023-03-20T01:15:28.514Z,1019.0840
2023-03-20T01:15:39.547Z,1023.7730
2023-03-20T01:15:50.655Z,1025.3459
2023-03-20T01:16:01.774Z,1022.2050
2023-03-20T01:16:12.941Z,1019.0840
2023-03-20T01:16:23.984Z,1019.8620
2023-03-20T01:16:35.096Z,1017.5300
2023-03-20T01:16:46.327Z,1025.3459
2023-03-20T01:16:57.427Z,1022.2050
2023-03-20T01:17:08.480Z,1021.4230
2023-03-20T01:17:19.579Z,1019.0840
2023-03-20T01:17:30.604Z,1022.2050
2023-03-20T01:17:41.665Z,1019.0840
2023-03-20T01:17:52.740Z,1019.0840
2023-03-20T01:18:03.792Z,1019.8620
2023-03-20T01:18:14.856Z,1019.0840
2023-03-20T01:18:25.893Z,1025.3459
2023-03-20T01:18:36.962Z,1017.5300
2023-03-20T01:18:48.006Z,1016.7560
2023-03-20T01:18:59.070Z,1020.6420
2023-03-20T01:19:10.133Z,1017.5300
2023-03-20T01:19:21.195Z,1019.0840
2023-03-20T01:19:32.273Z,1025.3459
2023-03-20T01:19:43.301Z,1015.9820
2023-03-20T01:19:54.331Z,1014.4380
2023-03-20T01:20:05.407Z,1019.0840
2023-03-20T01:20:16.477Z,1023.7730
2023-03-20T01:20:27.516Z,1014.4380
2023-03-20T01:20:38.593Z,1015.2090
2023-03-20T01:20:49.614Z,1025.3459
2023-03-20T01:21:00.710Z,1025.3459
2023-03-20T01:21:11.744Z,1011.3640
2023-03-20T01:21:22.815Z,1019.0840
2023-03-20T01:21:33.864Z,1014.4380
2023-03-20T01:21:44.954Z,1019.0840
2023-03-20T01:21:56.013Z,1017.5300
2023-03-20T01:22:07.083Z,1019.8620
2023-03-20T01:22:18.157Z,1016.7560
2023-03-20T01:22:29.305Z,1015.9820
2023-03-20T01:22:40.352Z,1020.6420
2023-03-20T01:22:51.389Z,1017.5300
2023-03-20T01:23:02.468Z,1015.9820
2023-03-20T01:23:13.504Z,1017.5300
2023-03-20T01:23:24.647Z,1015.9820
2023-03-20T01:23:35.712Z,1022.9890
2023-03-20T01:23:46.765Z,1019.0840
2023-03-20T01:23:57.829Z,1016.7560
2023-03-20T01:24:08.885Z,1017.5300
2023-03-20T01:24:19.946Z,1017.5300
2023-03-20T01:24:31.008Z,1019.8620
2023-03-20T01:24:42.052Z,1016.7560
2023-03-20T01:24:53.122Z,1023.7730
2023-03-20T01:25:04.165Z,1019.8620
2023-03-20T01:25:15.224Z,1017.5300
2023-03-20T01:25:26.278Z,1017.5300
2023-03-20T01:25:37.610Z,1013.6670
2023-03-20T01:25:48.975Z,1017.5300
2023-03-20T01:26:00.057Z,1015.2090
2023-03-20T01:26:11.133Z,1019.0840
2023-03-20T01:26:22.180Z,1013.6670
2023-03-20T01:26:33.241Z,1017.5300
2023-03-20T01:26:44.339Z,1015.2090
2023-03-20T01:26:55.388Z,1020.6420
2023-03-20T01:27:06.453Z,1018.3070
2023-03-20T01:27:17.516Z,1015.9820
2023-03-20T01:27:28.570Z,1014.4380
2023-03-20T01:27:39.622Z,1015.9820
2023-03-20T01:27:50.672Z,1015.9820
2023-03-20T01:28:01.718Z,1018.3070
2023-03-20T01:28:12.761Z,1014.4380
2023-03-20T01:28:23.824Z,1020.6420
2023-03-20T01:28:34.873Z,1019.0840
2023-03-20T01:28:45.917Z,1019.8620
2023-03-20T01:28:56.993Z,1015.2090
2023-03-20T01:29:08.030Z,1019.0840
2023-03-20T01:29:19.090Z,1016.7560
2023-03-20T01:29:30.144Z,1017.5300
2023-03-20T01:29:41.221Z,1009.8340
2023-03-20T01:29:52.296Z,1011.3640
2023-03-20T01:30:03.340Z,1014.4380
2023-03-20T01:30:14.408Z,1015.9820
2023-03-20T01:30:25.420Z,1019.8620
2023-03-20T01:30:36.482Z,1019.8620
2023-03-20T01:30:47.567Z,1015.2090
2023-03-20T01:30:58.607Z,1019.8620
2023-03-20T01:31:09.691Z,1021.4230
2023-03-20T01:31:20.864Z,1020.6420
2023-03-20T01:31:31.997Z,1016.7560
2023-03-20T01:31:43.100Z,1019.0840
2023-03-20T01:31:54.267Z,1016.7560
2023-03-20T01:32:05.427Z,1016.7560
2023-03-20T01:32:16.474Z,1016.7560
2023-03-20T01:32:27.561Z,1007.5470
2023-03-20T01:32:38.583Z,1014.4380
2023-03-20T01:32:49.725Z,1019.0840
2023-03-20T01:33:00.882Z,1019.0840
2023-03-20T01:33:11.948Z,1012.8980
2023-03-20T01:33:23.014Z,1018.3070
2023-03-20T01:33:34.061Z,1022.2050
2023-03-20T01:33:45.105Z,1014.4380
2023-03-20T01:33:56.159Z,1016.7560
2023-03-20T01:34:07.219Z,1016.7560
2023-03-20T01:34:18.264Z,1013.6670
2023-03-20T01:34:29.320Z,1012.8980
2023-03-20T01:34:40.405Z,1014.4380
2023-03-20T01:34:51.465Z,1014.4380
2023-03-20T01:35:02.492Z,1019.0840
2023-03-20T01:35:13.549Z,1018.3070
2023-03-20T01:35:24.620Z,1012.8980
2023-03-20T01:35:36.037Z,1025.3459
2023-03-20T01:35:47.368Z,1015.2090
2023-03-20T01:35:58.424Z,1008.3080
2023-03-20T01:36:09.492Z,1013.6670
2023-03-20T01:36:20.519Z,1013.6670
2023-03-20T01:36:31.616Z,1009.0700
2023-03-20T01:36:42.651Z,1014.4380
2023-03-20T01:36:53.712Z,1015.9820
2023-03-20T01:37:04.751Z,1015.9820
2023-03-20T01:37:15.842Z,1011.3640
2023-03-20T01:37:26.902Z,1015.9820
2023-03-20T01:37:37.969Z,1009.8340
2023-03-20T01:37:49.033Z,1017.5300
2023-03-20T01:38:00.107Z,1011.3640
2023-03-20T01:38:11.144Z,1010.5980
2023-03-20T01:38:22.184Z,1008.3080
2023-03-20T01:38:33.234Z,1009.0700
2023-03-20T01:38:44.291Z,1016.7560
2023-03-20T01:38:55.350Z,1011.3640
2023-03-20T01:39:06.404Z,1007.5470
2023-03-20T01:39:17.463Z,1012.1300
2023-03-20T01:39:28.507Z,1012.8980
2023-03-20T01:39:39.573Z,1010.5980
2023-03-20T01:39:50.683Z,1015.2090
2023-03-20T01:40:01.694Z,1003.7590
2023-03-20T01:40:12.751Z,1012.1300
2023-03-20T01:40:23.818Z,1020.6420
2023-03-20T01:40:34.880Z,1008.3080
2023-03-20T01:40:45.933Z,1014.4380
2023-03-20T01:40:57.001Z,1004.5150
2023-03-20T01:41:08.058Z,1012.8980
2023-03-20T01:41:19.127Z,1005.2710
2023-03-20T01:41:30.202Z,1008.3080
2023-03-20T01:41:41.263Z,1010.5980
2023-03-20T01:41:52.292Z,1012.1300
2023-03-20T01:42:03.371Z,1010.5980
2023-03-20T01:42:14.423Z,1003.0050
2023-03-20T01:42:25.499Z,1012.8980
2023-03-20T01:42:36.571Z,1017.5300
2023-03-20T01:42:47.631Z,1006.7870
2023-03-20T01:42:58.677Z,1015.9820
2023-03-20T01:43:09.726Z,1014.4380
2023-03-20T01:43:20.789Z,1011.3640
2023-03-20T01:43:31.850Z,1006.7870
2023-03-20T01:43:42.908Z,1012.1300
2023-03-20T01:43:54.017Z,1011.3640
2023-03-20T01:44:05.053Z,1006.7870
2023-03-20T01:44:16.093Z,1008.3080
2023-03-20T01:44:27.155Z,1010.5980
2023-03-20T01:44:38.221Z,1006.7870
2023-03-20T01:44:49.327Z,1011.3640
2023-03-20T01:45:00.389Z,1008.3080
2023-03-20T01:45:11.448Z,1009.0700
2023-03-20T01:45:22.491Z,1011.3640
2023-03-20T01:45:33.693Z,1010.5980
2023-03-20T01:45:44.863Z,1008.3080
2023-03-20T01:45:55.924Z,1006.7870
2023-03-20T01:46:06.993Z,1000.7500
2023-03-20T01:46:18.067Z,1006.7870
2023-03-20T01:46:29.245Z,1009.8340
2023-03-20T01:46:40.293Z,1009.8340
2023-03-20T01:46:51.379Z,1012.1300
2023-03-20T01:47:02.446Z,1003.7590
2023-03-20T01:47:13.501Z,1006.7870
2023-03-20T01:47:24.566Z,1014.4380
2023-03-20T01:47:35.660Z,1006.7870
2023-03-20T01:47:46.709Z,1014.4380
2023-03-20T01:47:57.753Z,1010.5980
2023-03-20T01:48:08.821Z,1006.0290
2023-03-20T01:48:19.860Z,1008.3080
2023-03-20T01:48:30.931Z,1005.2710
2023-03-20T01:48:42.002Z,1003.7590
2023-03-20T01:48:53.043Z,997.7580
2023-03-20T01:49:04.091Z,1006.7870
2023-03-20T01:49:15.150Z,1005.2710
2023-03-20T01:49:26.171Z,1009.8340
2023-03-20T01:49:37.227Z,1007.5470
2023-03-20T01:49:48.306Z,1012.8980
2023-03-20T01:49:59.328Z,1000.7500
2023-03-20T01:50:10.380Z,1008.3080
2023-03-20T01:50:21.438Z,1011.3640
2023-03-20T01:50:32.514Z,1003.0050
2023-03-20T01:50:43.542Z,1003.7590
2023-03-20T01:50:54.594Z,1011.3640
2023-03-20T01:51:05.661Z,1006.7870
2023-03-20T01:51:16.719Z,1009.8340
2023-03-20T01:51:27.773Z,1006.7870
2023-03-20T01:51:38.836Z,1009.8340
2023-03-20T01:51:49.902Z,999.2510
2023-03-20T01:52:00.994Z,1008.3080
2023-03-20T01:52:12.074Z,1014.4380
2023-03-20T01:52:23.123Z,1011.3640
2023-03-20T01:52:34.176Z,1009.8340
2023-03-20T01:52:45.223Z,1006.7870
2023-03-20T01:52:56.257Z,1004.5150
2023-03-20T01:53:07.298Z,1008.3080
2023-03-20T01:53:18.368Z,1006.7870
2023-03-20T01:53:29.413Z,1008.3080
2023-03-20T01:53:40.454Z,1008.3080
2023-03-20T01:53:51.524Z,1006.7870
2023-03-20T01:54:02.568Z,1004.5150
2023-03-20T01:54:13.616Z,1006.7870
2023-03-20T01:54:24.667Z,1007.5470
2023-03-20T01:54:35.724Z,1011.3640
2023-03-20T01:54:46.785Z,1009.8340
2023-03-20T01:54:57.843Z,1010.5980
2023-03-20T01:55:08.904Z,1006.7870
2023-03-20T01:55:19.971Z,1002.2520
2023-03-20T01:55:31.032Z,1003.7590
2023-03-20T01:55:42.109Z,1012.1300
2023-03-20T01:55:53.158Z,1006.0290
2023-03-20T01:56:04.211Z,1006.7870
2023-03-20T01:56:15.282Z,1009.8340
2023-03-20T01:56:26.363Z,1009.8340
2023-03-20T01:56:37.398Z,1006.7870
2023-03-20T01:56:48.454Z,1012.8980
2023-03-20T01:56:59.518Z,1006.7870
2023-03-20T01:57:10.575Z,1008.3080
2023-03-20T01:57:21.634Z,1010.5980
2023-03-20T01:57:32.675Z,1006.0290
2023-03-20T01:57:43.733Z,1013.6670
2023-03-20T01:57:54.805Z,1005.2710
2023-03-20T01:58:05.860Z,1006.7870
2023-03-20T01:58:16.928Z,1003.0050
2023-03-20T01:58:27.975Z,1010.5980
2023-03-20T01:58:39.012Z,1008.3080
2023-03-20T01:58:50.076Z,1011.3640
2023-03-20T01:59:01.124Z,1011.3640
2023-03-20T01:59:12.177Z,1012.1300
2023-03-20T01:59:23.248Z,1014.4380
2023-03-20T01:59:34.304Z,1006.7870
2023-03-20T01:59:45.351Z,1009.0700
2023-03-20T01:59:56.419Z,1009.0700
2023-03-20T02:00:07.492Z,1007.5470
2023-03-20T02:00:18.553Z,1008.3080
2023-03-20T02:00:29.607Z,1009.0700
2023-03-20T02:00:40.674Z,1009.0700
2023-03-20T02:00:51.814Z,1014.4380
2023-03-20T02:01:02.907Z,1009.8340
2023-03-20T02:01:14.054Z,1008.3080
2023-03-20T02:01:25.155Z,1009.8340
2023-03-20T02:01:36.275Z,1010.5980
2023-03-20T02:01:47.354Z,1005.2710
2023-03-20T02:01:58.422Z,1008.3080
2023-03-20T02:02:09.464Z,1009.8340
2023-03-20T02:02:20.563Z,1011.3640
2023-03-20T02:02:31.623Z,1015.2090
2023-03-20T02:02:42.700Z,1015.2090
2023-03-20T02:02:53.714Z,1012.8980
2023-03-20T02:03:04.786Z,1012.8980
2023-03-20T02:03:15.812Z,1011.3640
2023-03-20T02:03:26.874Z,1008.3080
2023-03-20T02:03:37.953Z,1015.2090
2023-03-20T02:03:48.989Z,1017.5300
2023-03-20T02:04:00.046Z,1009.8340
2023-03-20T02:04:11.108Z,1014.4380
2023-03-20T02:04:22.279Z,1010.5980
2023-03-20T02:04:33.341Z,1015.9820
2023-03-20T02:04:44.457Z,1015.9820
2023-03-20T02:04:55.582Z,1017.5300
2023-03-20T02:05:06.720Z,1009.8340
2023-03-20T02:05:17.794Z,1009.8340
2023-03-20T02:05:28.834Z,1015.2090
2023-03-20T02:05:39.900Z,1012.1300
2023-03-20T02:05:50.969Z,1015.9820
2023-03-20T02:06:02.021Z,1012.1300
2023-03-20T02:06:13.055Z,1014.4380
2023-03-20T02:06:24.104Z,1012.8980